Time;durP1;ratioP1;P1;durP2;ratioP2;P2;SDS_P1;SDS_P2;PMS_P1;PMS_P2;Temp;Humidity;BMP_temperature;BMP_pressure;BME280_temperature;BME280_humidity;BME280_pressure;Samples;Min_cycle;Max_cycle;Signal;HPM_P1;HPM_P2
2023/10/01 00:03:18;;;;;;;7.95;4.47;;;8.00;99.90;;;;;;8369464;28;20052;-79
2023/10/01 00:07:18;;;;;;;9.57;5.40;;;7.90;99.90;;;;;;8379425;28;20583;-79
2023/10/01 00:11:19;;;;;;;11.15;5.63;;;7.70;99.90;;;;;;8365132;28;20032;-79
2023/10/01 00:15:23;;;;;;;12.75;5.65;;;7.60;99.90;;;;;;8367753;28;20086;-79
2023/10/01 00:19:24;;;;;;;11.90;5.57;;;7.70;99.90;;;;;;8390451;28;20024;-78
2023/10/01 00:23:25;;;;;;;11.13;5.53;;;7.80;99.90;;;;;;8371434;28;20564;-79
2023/10/01 00:27:26;;;;;;;11.27;5.72;;;7.90;99.90;;;;;;8394898;28;20104;-79
2023/10/01 00:31:26;;;;;;;14.13;6.10;;;7.80;99.90;;;;;;8375849;28;20116;-78
2023/10/01 00:35:27;;;;;;;9.52;5.15;;;7.90;99.90;;;;;;8375105;28;20389;-78
2023/10/01 00:39:27;;;;;;;9.63;5.60;;;7.90;99.90;;;;;;8379535;28;20033;-77
2023/10/01 00:43:31;;;;;;;11.73;5.82;;;7.90;99.90;;;;;;8394992;28;20047;-79
2023/10/01 00:47:33;;;;;;;10.35;5.50;;;8.00;99.90;;;;;;8380766;28;20062;-78
2023/10/01 00:51:34;;;;;;;10.07;5.18;;;8.10;99.90;;;;;;8389075;28;20029;-79
2023/10/01 00:55:34;;;;;;;12.57;5.47;;;8.00;99.90;;;;;;8380211;28;20086;-77
2023/10/01 00:59:35;;;;;;;11.55;5.38;;;7.80;99.90;;;;;;8395115;28;20040;-79
2023/10/01 01:03:36;;;;;;;12.07;5.57;;;7.70;99.90;;;;;;8375137;28;20024;-78
2023/10/01 01:07:40;;;;;;;10.95;5.20;;;7.70;99.90;;;;;;8378873;28;20052;-78
2023/10/01 01:11:41;;;;;;;10.60;5.43;;;7.80;99.90;;;;;;8392708;28;20029;-79
2023/10/01 01:15:45;;;;;;;12.73;5.68;;;7.80;99.90;;;;;;8397054;28;20236;-78
2023/10/01 01:19:51;;;;;;;10.43;4.80;;;7.90;99.90;;;;;;8377838;28;20086;-78
2023/10/01 01:23:53;;;;;;;11.40;5.47;;;7.90;99.90;;;;;;8393253;28;20032;-78
2023/10/01 01:27:57;;;;;;;11.73;5.57;;;7.80;99.90;;;;;;8377007;28;20059;-78
2023/10/01 01:32:07;;;;;;;12.30;5.68;;;7.80;99.90;;;;;;8389524;28;20024;-78
2023/10/01 01:36:09;;;;;;;12.32;5.90;;;7.90;99.90;;;;;;8378514;28;20125;-78
2023/10/01 01:40:27;;;;;;;11.98;5.90;;;7.90;99.90;;;;;;8374142;28;20032;-77
2023/10/01 01:44:27;;;;;;;13.65;5.72;;;7.80;99.90;;;;;;8378173;28;20496;-78
2023/10/01 01:52:29;;;;;;;9.38;5.32;;;7.70;99.90;;;;;;8390606;28;20028;-79
2023/10/01 01:56:39;;;;;;;11.55;5.68;;;7.60;99.90;;;;;;8395828;28;20104;-78
2023/10/01 02:01:01;;;;;;;10.48;5.43;;;7.60;99.90;;;;;;8368404;28;20469;-77
2023/10/01 02:05:09;;;;;;;9.95;5.03;;;7.70;99.90;;;;;;8376798;28;20028;-78
2023/10/01 02:09:14;;;;;;;10.55;5.63;;;7.60;99.90;;;;;;8372524;28;20017;-76
2023/10/01 02:13:17;;;;;;;12.10;5.65;;;7.50;99.90;;;;;;8373408;28;20048;-79
2023/10/01 02:17:17;;;;;;;10.45;5.68;;;7.50;99.90;;;;;;8369978;28;20024;-78
2023/10/01 02:21:18;;;;;;;12.38;5.65;;;7.40;99.90;;;;;;8372806;28;20055;-78
2023/10/01 02:25:18;;;;;;;14.55;5.75;;;7.40;99.90;;;;;;8383615;28;20024;-78
2023/10/01 02:29:24;;;;;;;9.20;5.07;;;7.30;99.90;;;;;;8363563;28;20028;-78
2023/10/01 02:33:30;;;;;;;13.13;6.35;;;7.30;99.90;;;;;;8373820;28;20401;-78
2023/10/01 02:37:35;;;;;;;13.30;6.10;;;7.40;99.90;;;;;;8372665;28;20040;-78
2023/10/01 02:41:38;;;;;;;16.08;6.25;;;7.40;99.90;;;;;;8372195;28;20012;-77
2023/10/01 02:45:41;;;;;;;13.45;6.72;;;7.40;99.90;;;;;;8392789;28;20012;-78
2023/10/01 02:49:49;;;;;;;15.75;6.45;;;7.20;99.90;;;;;;8377185;28;20074;-76
2023/10/01 02:58:17;;;;;;;11.30;5.60;;;6.90;99.90;;;;;;8396808;28;20098;-77
2023/10/01 03:02:20;;;;;;;12.45;5.25;;;6.70;99.90;;;;;;8361847;28;20029;-78
2023/10/01 03:06:21;;;;;;;9.13;4.93;;;6.60;99.90;;;;;;8393317;28;20048;-78
2023/10/01 03:14:26;;;;;;;9.23;5.05;;;6.70;99.90;;;;;;8392780;28;20025;-78
2023/10/01 03:22:31;;;;;;;10.98;5.25;;;7.00;99.90;;;;;;8388558;28;20083;-77
2023/10/01 03:26:33;;;;;;;9.25;4.65;;;7.10;99.90;;;;;;8375445;28;20021;-79
2023/10/01 03:30:33;;;;;;;9.40;5.07;;;7.10;99.90;;;;;;8366641;28;20025;-78
2023/10/01 03:34:43;;;;;;;8.50;4.50;;;7.10;99.90;;;;;;8375085;28;20450;-78
2023/10/01 03:38:44;;;;;;;11.43;5.28;;;7.10;99.90;;;;;;8372158;28;20029;-78
2023/10/01 03:42:51;;;;;;;12.63;5.72;;;7.00;99.90;;;;;;8387401;28;21113;-79
2023/10/01 03:46:51;;;;;;;12.75;6.10;;;7.00;99.90;;;;;;8373315;28;20040;-78
2023/10/01 03:50:53;;;;;;;11.27;6.40;;;7.10;99.90;;;;;;8369401;28;20056;-79
2023/10/01 03:59:00;;;;;;;15.40;6.40;;;6.90;99.90;;;;;;8393272;28;20107;-79
2023/10/01 04:03:01;;;;;;;13.10;6.55;;;6.80;99.90;;;;;;8374692;28;20040;-77
2023/10/01 04:07:11;;;;;;;13.95;6.32;;;6.70;99.90;;;;;;8380479;28;20025;-78
2023/10/01 04:11:13;;;;;;;13.53;6.93;;;6.60;99.90;;;;;;8394138;28;20106;-76
2023/10/01 04:15:27;;;;;;;16.15;6.85;;;6.90;99.90;;;;;;8381144;28;20228;-78
2023/10/01 04:19:27;;;;;;;16.65;6.75;;;7.00;99.90;;;;;;8367747;28;20041;-76
2023/10/01 04:23:33;;;;;;;11.45;5.95;;;7.10;99.90;;;;;;8379531;28;20499;-78
2023/10/01 04:27:34;;;;;;;13.55;6.28;;;7.40;99.90;;;;;;8380306;28;20024;-78
2023/10/01 04:31:52;;;;;;;22.38;6.80;;;7.30;99.90;;;;;;8368385;28;20026;-78
2023/10/01 04:35:55;;;;;;;19.73;7.05;;;7.30;99.90;;;;;;8379341;28;20041;-78
2023/10/01 04:39:56;;;;;;;13.88;6.22;;;7.20;99.90;;;;;;8376400;28;20044;-77
2023/10/01 04:44:03;;;;;;;11.80;6.53;;;7.10;99.90;;;;;;8377569;28;20025;-78
2023/10/01 04:48:15;;;;;;;14.00;6.53;;;7.00;99.90;;;;;;8402578;28;20029;-78
2023/10/01 04:52:17;;;;;;;18.00;7.30;;;6.80;99.90;;;;;;8375796;28;20514;-77
2023/10/01 04:56:21;;;;;;;17.77;7.07;;;6.80;99.90;;;;;;8371142;28;20033;-77
2023/10/01 05:00:23;;;;;;;19.08;7.40;;;6.70;99.90;;;;;;8381051;28;20119;-77
2023/10/01 05:04:25;;;;;;;15.63;6.72;;;6.70;99.90;;;;;;8397237;28;20028;-78
2023/10/01 05:08:25;;;;;;;18.83;7.40;;;6.60;99.90;;;;;;8372283;28;20017;-78
2023/10/01 05:12:30;;;;;;;16.27;7.32;;;6.60;99.90;;;;;;8366863;28;20035;-78
2023/10/01 05:16:36;;;;;;;15.90;7.45;;;6.60;99.90;;;;;;8365081;28;20454;-77
2023/10/01 05:20:37;;;;;;;16.77;8.02;;;6.60;99.90;;;;;;8362820;28;20515;-76
2023/10/01 05:24:41;;;;;;;13.40;7.00;;;6.60;99.90;;;;;;8365412;28;20074;-78
2023/10/01 05:28:42;;;;;;;17.10;7.45;;;6.70;99.90;;;;;;8369552;28;20017;-78
2023/10/01 05:32:51;;;;;;;13.25;7.25;;;6.60;99.90;;;;;;8390922;28;20576;-78
2023/10/01 05:36:52;;;;;;;11.52;6.18;;;6.60;99.90;;;;;;8379183;28;20051;-78
2023/10/01 05:40:56;;;;;;;13.63;6.90;;;6.60;99.90;;;;;;8374445;28;20032;-78
2023/10/01 05:44:59;;;;;;;12.40;6.63;;;6.70;99.90;;;;;;8404097;28;20020;-78
2023/10/01 05:49:00;;;;;;;14.35;7.15;;;6.60;99.90;;;;;;8365321;28;20501;-78
2023/10/01 05:53:01;;;;;;;14.55;7.72;;;6.70;99.90;;;;;;8364163;28;20197;-78
2023/10/01 05:57:01;;;;;;;14.65;7.05;;;6.80;99.90;;;;;;8376983;28;20111;-78
2023/10/01 06:01:05;;;;;;;15.45;7.43;;;6.80;99.90;;;;;;8397140;28;20024;-78
2023/10/01 06:05:22;;;;;;;12.38;6.30;;;6.90;99.90;;;;;;8378487;28;20496;-78
2023/10/01 06:09:23;;;;;;;13.75;7.18;;;6.90;99.90;;;;;;8367954;28;20198;-78
2023/10/01 06:13:24;;;;;;;16.75;7.07;;;7.00;99.90;;;;;;8370964;28;20044;-78
2023/10/01 06:17:28;;;;;;;13.80;6.63;;;7.30;99.90;;;;;;8394960;28;20067;-78
2023/10/01 06:21:31;;;;;;;16.30;7.38;;;7.50;99.90;;;;;;8388383;28;20116;-78
2023/10/01 06:25:40;;;;;;;14.35;6.45;;;7.50;99.90;;;;;;8368103;28;20025;-78
2023/10/01 06:29:50;;;;;;;14.60;7.65;;;7.60;99.90;;;;;;8375900;28;20431;-78
2023/10/01 06:33:53;;;;;;;;;;;7.80;99.90;;;;;;8374846;28;20028;-78
2023/10/01 06:37:54;;;;;;;13.73;6.47;;;7.90;99.90;;;;;;8400579;28;19913;-77
2023/10/01 06:42:17;;;;;;;15.65;7.57;;;8.00;99.90;;;;;;8371207;28;20053;-79
2023/10/01 06:46:19;;;;;;;14.10;7.78;;;8.10;99.90;;;;;;8393440;28;20814;-78
2023/10/01 06:50:20;;;;;;;15.23;7.57;;;8.50;99.90;;;;;;8366541;28;20047;-78
2023/10/01 06:54:22;;;;;;;15.50;8.40;;;8.60;99.90;;;;;;8373813;28;20024;-78
2023/10/01 06:58:24;;;;;;;15.85;7.90;;;8.70;99.90;;;;;;8374966;28;20099;-78
2023/10/01 07:02:25;;;;;;;17.80;8.45;;;8.80;99.90;;;;;;8364251;28;20032;-78
2023/10/01 07:06:26;;;;;;;19.77;10.20;;;9.30;99.90;;;;;;8394318;28;20024;-78
2023/10/01 07:10:28;;;;;;;16.17;9.25;;;9.30;99.90;;;;;;8387531;28;20062;-78
2023/10/01 07:14:31;;;;;;;18.00;9.35;;;9.70;99.90;;;;;;8374210;28;20033;-78
2023/10/01 07:18:31;;;;;;;17.58;9.27;;;10.00;99.90;;;;;;8371537;28;20078;-78
2023/10/01 07:22:34;;;;;;;18.67;9.27;;;10.00;99.90;;;;;;8368912;28;20052;-78
2023/10/01 07:26:34;;;;;;;22.52;10.20;;;10.20;99.90;;;;;;8374656;28;20024;-78
2023/10/01 07:30:45;;;;;;;21.02;11.07;;;10.20;99.90;;;;;;8372463;28;20036;-77
2023/10/01 07:34:48;;;;;;;22.00;10.90;;;10.50;99.90;;;;;;8379222;28;20020;-78
2023/10/01 07:38:52;;;;;;;21.42;10.32;;;10.70;99.90;;;;;;8408463;28;20024;-78
2023/10/01 07:42:57;;;;;;;19.90;11.27;;;11.00;99.90;;;;;;8376614;28;20024;-77
2023/10/01 07:46:57;;;;;;;19.60;9.88;;;11.20;99.90;;;;;;8386471;28;20174;-76
2023/10/01 07:51:04;;;;;;;22.63;10.57;;;11.40;99.90;;;;;;8374440;28;20025;-78
2023/10/01 07:55:29;;;;;;;20.15;9.63;;;11.70;99.90;;;;;;8378438;28;20048;-77
2023/10/01 07:59:29;;;;;;;21.67;9.77;;;12.00;99.90;;;;;;8392022;28;20066;-83
2023/10/01 08:03:32;;;;;;;19.92;9.65;;;12.30;99.90;;;;;;8369871;28;20664;-82
2023/10/01 08:07:54;;;;;;;20.13;10.38;;;12.50;99.90;;;;;;8380234;28;20029;-82
2023/10/01 08:12:06;;;;;;;22.15;10.52;;;12.90;99.90;;;;;;8396533;28;20044;-83
2023/10/01 08:16:13;;;;;;;19.23;10.18;;;13.60;99.90;;;;;;8387367;28;20039;-82
2023/10/01 08:20:31;;;;;;;19.58;10.45;;;13.60;99.90;;;;;;8408544;28;20561;-76
2023/10/01 08:24:33;;;;;;;18.27;9.98;;;13.90;99.90;;;;;;8380405;28;20024;-78
2023/10/01 08:28:43;;;;;;;17.02;9.48;;;14.20;99.90;;;;;;8377195;28;20036;-79
2023/10/01 08:32:53;;;;;;;22.42;10.43;;;14.50;99.90;;;;;;8362999;28;20029;-79
2023/10/01 08:36:55;;;;;;;19.77;9.75;;;14.60;99.90;;;;;;8372738;28;20024;-79
2023/10/01 08:41:00;;;;;;;19.42;10.05;;;14.70;99.90;;;;;;8367672;28;20025;-79
2023/10/01 08:45:04;;;;;;;20.40;9.50;;;15.00;99.90;;;;;;8395921;28;20082;-79
2023/10/01 08:49:23;;;;;;;16.67;9.93;;;15.30;99.90;;;;;;8379578;28;20458;-77
2023/10/01 08:53:23;;;;;;;18.27;9.60;;;15.30;99.90;;;;;;8366970;28;20029;-78
2023/10/01 08:57:36;;;;;;;20.00;9.57;;;15.70;99.90;;;;;;8393877;28;20067;-77
2023/10/01 09:01:37;;;;;;;20.05;9.85;;;16.00;99.90;;;;;;8370003;28;20052;-77
2023/10/01 09:05:46;;;;;;;18.02;9.32;;;16.40;99.90;;;;;;8395964;28;20044;-79
2023/10/01 09:10:07;;;;;;;21.85;9.73;;;16.80;99.90;;;;;;8380258;28;20031;-79
2023/10/01 09:14:17;;;;;;;16.83;8.93;;;17.50;99.90;;;;;;8394109;28;20024;-80
2023/10/01 09:18:20;;;;;;;;;;;17.70;99.90;;;;;;8395486;28;20558;-79
2023/10/01 09:27:36;;;;;;;19.35;8.75;;;18.30;99.90;;;;;;8389260;28;20108;-80
2023/10/01 09:35:49;;;;;;;16.13;7.50;;;19.50;99.90;;;;;;8388281;28;20063;-80
2023/10/01 09:39:50;;;;;;;15.98;7.35;;;20.00;99.90;;;;;;8372393;28;20597;-80
2023/10/01 09:43:58;;;;;;;17.75;8.25;;;20.40;99.90;;;;;;8366854;28;20025;-79
2023/10/01 09:48:09;;;;;;;15.10;7.10;;;20.90;99.90;;;;;;8372917;28;20044;-81
2023/10/01 09:52:12;;;;;;;15.63;7.50;;;21.20;99.90;;;;;;8384679;28;20500;-82
2023/10/01 09:56:14;;;;;;;19.35;8.45;;;21.10;99.90;;;;;;8378552;28;20020;-81
2023/10/01 10:00:17;;;;;;;16.52;7.97;;;21.00;99.90;;;;;;8375527;28;20043;-82
2023/10/01 10:04:20;;;;;;;16.63;7.35;;;21.40;99.90;;;;;;8400592;28;20121;-82
2023/10/01 10:08:26;;;;;;;19.10;7.30;;;22.10;99.90;;;;;;8377012;28;20099;-81
2023/10/01 10:12:34;;;;;;;13.30;6.85;;;22.70;99.90;;;;;;8367388;28;20718;-82
2023/10/01 10:16:58;;;;;;;18.85;7.35;;;23.20;99.90;;;;;;8396380;28;20410;-81
2023/10/01 10:20:59;;;;;;;16.05;7.15;;;23.20;99.90;;;;;;8367499;28;20020;-82
2023/10/01 10:25:19;;;;;;;14.30;6.63;;;22.70;99.90;;;;;;8399749;28;20035;-82
2023/10/01 10:29:22;;;;;;;13.63;6.45;;;22.40;99.90;;;;;;8383068;28;20024;-81
2023/10/01 10:33:29;;;;;;;12.65;6.25;;;22.10;99.90;;;;;;8373218;28;20023;-82
2023/10/01 10:37:44;;;;;;;14.07;6.18;;;22.20;99.90;;;;;;8400670;28;20026;-81
2023/10/01 10:42:27;;;;;;;14.85;6.25;;;22.40;99.90;;;;;;8407414;28;20028;-81
2023/10/01 10:46:28;;;;;;;12.82;6.05;;;22.20;99.90;;;;;;8376368;28;20021;-82
2023/10/01 10:50:49;;;;;;;11.18;5.53;;;22.20;99.90;;;;;;8380875;28;20035;-82
2023/10/01 10:54:51;;;;;;;12.25;5.80;;;22.90;99.90;;;;;;8377513;28;20024;-82
2023/10/01 10:59:01;;;;;;;14.95;5.70;;;24.50;99.90;;;;;;8371772;28;20029;-82
2023/10/01 11:03:02;;;;;;;13.43;5.68;;;25.60;99.90;;;;;;8359916;28;20449;-81
2023/10/01 11:07:04;;;;;;;13.50;6.13;;;26.50;99.90;;;;;;8371783;28;20456;-82
2023/10/01 11:11:10;;;;;;;13.18;6.03;;;26.80;99.90;;;;;;8390462;28;20021;-82
2023/10/01 11:15:23;;;;;;;14.10;5.97;;;27.70;99.90;;;;;;8369683;28;20670;-84
2023/10/01 11:19:35;;;;;;;13.65;5.45;;;28.40;99.90;;;;;;8389557;28;20070;-82
2023/10/01 11:23:36;;;;;;;13.80;5.88;;;27.50;99.90;;;;;;8355694;28;20403;-82
2023/10/01 11:27:45;;;;;;;13.75;5.88;;;28.50;99.90;;;;;;8362694;28;20067;-83
2023/10/01 11:31:50;;;;;;;12.02;6.07;;;28.90;99.90;;;;;;8380181;28;20086;-83
2023/10/01 11:35:59;;;;;;;12.63;5.97;;;30.00;99.50;;;;;;8372112;28;20396;-83
2023/10/01 11:40:05;;;;;;;16.95;6.63;;;30.80;96.90;;;;;;8367560;28;20020;-82
2023/10/01 11:44:06;;;;;;;13.10;5.93;;;30.30;95.50;;;;;;8366440;28;20032;-83
2023/10/01 11:48:19;;;;;;;12.27;5.82;;;29.60;97.80;;;;;;8372376;28;20028;-83
2023/10/01 11:52:25;;;;;;;11.30;5.80;;;30.40;93.50;;;;;;8390153;28;20025;-83
2023/10/01 11:56:32;;;;;;;12.07;5.68;;;31.20;90.60;;;;;;8376319;28;20020;-79
2023/10/01 12:04:58;;;;;;;12.98;6.03;;;30.50;91.20;;;;;;8396042;28;20039;-80
2023/10/01 12:08:58;;;;;;;11.15;5.38;;;30.80;89.80;;;;;;8386006;28;20025;-81
2023/10/01 12:13:02;;;;;;;13.50;6.35;;;31.00;89.90;;;;;;8369729;28;20536;-81
2023/10/01 12:17:02;;;;;;;12.00;5.68;;;31.40;89.30;;;;;;8392234;28;20056;-81
2023/10/01 12:21:24;;;;;;;11.05;5.25;;;30.70;89.20;;;;;;8372015;28;20028;-80
2023/10/01 12:25:42;;;;;;;13.70;5.68;;;31.30;88.10;;;;;;8398452;28;20037;-79
2023/10/01 12:29:42;;;;;;;11.55;5.50;;;30.80;84.40;;;;;;8392874;28;20025;-80
2023/10/01 12:33:43;;;;;;;11.60;5.55;;;30.80;83.60;;;;;;8369871;28;20043;-80
2023/10/01 12:37:45;;;;;;;11.30;5.40;;;31.50;85.20;;;;;;8378454;28;20032;-79
2023/10/01 12:45:54;;;;;;;10.82;5.20;;;32.90;79.20;;;;;;8396263;28;20035;-81
2023/10/01 12:49:58;;;;;;;13.15;5.47;;;33.60;79.30;;;;;;8377008;28;20029;-84
2023/10/01 12:54:00;;;;;;;10.15;5.03;;;33.40;68.10;;;;;;8367541;28;20025;-83
2023/10/01 12:58:00;;;;;;;11.57;5.20;;;34.10;67.80;;;;;;8393929;28;20477;-82
2023/10/01 13:02:04;;;;;;;11.35;5.32;;;33.50;70.10;;;;;;8379799;28;20021;-86
2023/10/01 13:06:12;;;;;;;11.45;5.68;;;32.90;71.50;;;;;;8376127;28;20037;-83
2023/10/01 13:10:33;;;;;;;11.85;5.22;;;33.30;71.50;;;;;;8369961;28;20024;-83
2023/10/01 13:14:33;;;;;;;11.27;5.60;;;33.70;68.50;;;;;;8370555;28;20025;-83
2023/10/01 13:18:34;;;;;;;11.15;5.50;;;34.50;64.50;;;;;;8372211;28;20039;-82
2023/10/01 13:22:34;;;;;;;10.00;5.22;;;34.90;62.50;;;;;;8361683;28;20032;-83
2023/10/01 13:26:38;;;;;;;12.57;6.00;;;35.00;61.20;;;;;;8368365;28;20010;-82
2023/10/01 13:31:03;;;;;;;10.13;5.25;;;34.80;60.60;;;;;;8388530;28;20020;-85
2023/10/01 13:35:31;;;;;;;10.43;5.25;;;34.80;62.80;;;;;;8380802;28;20029;-84
2023/10/01 13:39:25;;;;;;;10.00;5.03;;;34.30;63.80;;;;;;8394875;28;20085;-83
2023/10/01 14:09:47;;;;;;;9.77;5.22;;;32.30;67.60;;;;;;8385644;28;20110;-83
2023/10/01 14:13:45;;;;;;;11.05;5.53;;;33.00;63.60;;;;;;8389453;28;20036;-83
2023/10/01 14:17:52;;;;;;;11.35;5.68;;;33.20;66.50;;;;;;8376688;28;20040;-84
2023/10/01 14:21:53;;;;;;;11.48;5.43;;;33.00;61.00;;;;;;8367003;28;20024;-84
2023/10/01 14:26:10;;;;;;;9.18;4.93;;;32.40;62.20;;;;;;8372069;28;20048;-84
2023/10/01 14:30:26;;;;;;;13.13;5.78;;;31.90;64.80;;;;;;8370280;28;20027;-84
2023/10/01 14:34:27;;;;;;;11.63;5.55;;;30.70;66.80;;;;;;8369218;28;20037;-84
2023/10/01 14:38:37;;;;;;;9.15;4.93;;;29.70;70.30;;;;;;8373408;28;20029;-84
2023/10/01 14:42:37;;;;;;;10.45;5.40;;;28.20;75.10;;;;;;8370647;28;20377;-84
2023/10/01 14:46:41;;;;;;;12.43;5.63;;;27.40;77.40;;;;;;8368395;28;20036;-84
2023/10/01 14:50:41;;;;;;;9.70;5.07;;;26.70;78.70;;;;;;8365559;28;20029;-83
2023/10/01 14:54:42;;;;;;;11.73;4.90;;;26.10;84.50;;;;;;8362884;28;20082;-83
2023/10/01 14:58:42;;;;;;;11.02;5.10;;;25.50;84.60;;;;;;8357708;28;20025;-83
2023/10/01 15:02:43;;;;;;;11.32;5.57;;;25.00;90.00;;;;;;8357453;28;20017;-83
2023/10/01 15:07:05;;;;;;;11.02;4.72;;;24.50;90.70;;;;;;8364328;28;20506;-84
2023/10/01 15:11:13;;;;;;;9.70;4.80;;;24.30;86.70;;;;;;8383085;28;20037;-83
2023/10/01 15:15:18;;;;;;;12.80;5.28;;;23.90;91.70;;;;;;8376228;28;20074;-82
2023/10/01 15:19:26;;;;;;;11.88;5.57;;;23.30;96.40;;;;;;8370759;28;20020;-80
2023/10/01 15:23:27;;;;;;;9.65;4.65;;;22.60;98.70;;;;;;8365041;28;20063;-82
2023/10/01 15:27:29;;;;;;;10.02;4.85;;;22.20;99.50;;;;;;8383548;28;20028;-82
2023/10/01 15:31:30;;;;;;;9.27;4.70;;;21.80;99.90;;;;;;8368377;28;20040;-82
2023/10/01 15:35:31;;;;;;;9.18;4.97;;;21.40;99.90;;;;;;8368370;28;20025;-80
2023/10/01 15:43:42;;;;;;;10.98;4.80;;;21.10;99.90;;;;;;8392977;28;20021;-79
2023/10/01 15:47:45;;;;;;;26.63;12.05;;;20.80;99.90;;;;;;8400414;28;20024;-80
2023/10/01 15:51:47;;;;;;;10.38;5.68;;;20.50;99.90;;;;;;8371663;28;20029;-80
2023/10/01 15:56:02;;;;;;;10.57;4.70;;;20.40;99.90;;;;;;8376141;28;20489;-81
2023/10/01 16:04:25;;;;;;;10.43;5.75;;;20.30;99.90;;;;;;8408094;28;20036;-81
2023/10/01 16:08:26;;;;;;;14.20;7.35;;;20.10;99.90;;;;;;8387546;28;20025;-82
2023/10/01 16:12:26;;;;;;;10.02;5.10;;;19.80;99.90;;;;;;8381998;28;20036;-81
2023/10/01 16:16:27;;;;;;;11.25;5.78;;;19.40;99.90;;;;;;8386886;28;20024;-81
2023/10/01 16:20:28;;;;;;;11.05;4.93;;;19.20;99.90;;;;;;8381313;28;20222;-81
2023/10/01 16:24:28;;;;;;;11.07;4.53;;;18.80;99.90;;;;;;8406077;28;20085;-81
2023/10/01 16:28:33;;;;;;;10.20;4.68;;;18.40;99.90;;;;;;8403265;28;20017;-82
2023/10/01 16:32:34;;;;;;;13.38;4.95;;;18.20;99.90;;;;;;8379903;28;20107;-80
2023/10/01 16:36:37;;;;;;;8.52;4.38;;;18.00;99.90;;;;;;8391158;28;20020;-81
2023/10/01 16:40:37;;;;;;;11.05;5.15;;;17.70;99.90;;;;;;8416567;28;20039;-81
2023/10/01 16:44:38;;;;;;;9.77;5.18;;;17.60;99.90;;;;;;8380330;28;20029;-80
2023/10/01 16:48:39;;;;;;;11.35;5.30;;;17.40;99.90;;;;;;8376183;28;20039;-81
2023/10/01 16:52:39;;;;;;;8.98;5.03;;;17.20;99.90;;;;;;8379460;28;20042;-80
2023/10/01 16:56:48;;;;;;;16.42;6.75;;;17.10;99.90;;;;;;8389540;28;20142;-80
2023/10/01 17:00:49;;;;;;;658.53;365.63;;;17.00;99.90;;;;;;8373271;28;20029;-80
2023/10/01 17:04:50;;;;;;;39.08;16.58;;;17.10;99.90;;;;;;8385359;28;20032;-79
2023/10/01 17:09:06;;;;;;;13.43;6.07;;;17.00;99.90;;;;;;8401244;28;20393;-81
2023/10/01 17:13:14;;;;;;;10.35;4.53;;;16.90;99.90;;;;;;8377725;28;20059;-79
2023/10/01 17:17:15;;;;;;;12.98;4.88;;;16.70;99.90;;;;;;8408078;28;20055;-81
2023/10/01 17:21:17;;;;;;;11.13;4.60;;;16.60;99.90;;;;;;8376257;28;20450;-81
2023/10/01 17:25:26;;;;;;;9.88;5.07;;;16.40;99.90;;;;;;8383078;28;20103;-81
2023/10/01 17:29:29;;;;;;;19.65;9.70;;;16.20;99.90;;;;;;8399099;28;20040;-82
2023/10/01 17:33:29;;;;;;;14.48;7.40;;;16.00;99.90;;;;;;8382875;28;20024;-82
2023/10/01 17:37:30;;;;;;;10.18;4.93;;;15.60;99.90;;;;;;8382428;28;20046;-81
2023/10/01 17:41:33;;;;;;;10.73;4.78;;;15.20;99.90;;;;;;8377279;28;20027;-82
2023/10/01 17:45:34;;;;;;;11.00;5.32;;;15.30;99.90;;;;;;8406825;28;20085;-81
2023/10/01 17:49:45;;;;;;;10.75;5.13;;;15.30;99.90;;;;;;8383670;28;20198;-80
2023/10/01 17:53:50;;;;;;;16.25;7.85;;;15.20;99.90;;;;;;8375449;28;20033;-82
2023/10/01 17:57:53;;;;;;;10.98;5.15;;;15.30;99.90;;;;;;8402211;28;20114;-81
2023/10/01 18:02:04;;;;;;;11.18;4.85;;;15.20;99.90;;;;;;8377527;28;20042;-83
2023/10/01 18:06:08;;;;;;;10.25;4.80;;;15.00;99.90;;;;;;8409346;28;20047;-82
2023/10/01 18:10:25;;;;;;;11.00;4.78;;;14.80;99.90;;;;;;8398329;28;20024;-79
2023/10/01 18:14:33;;;;;;;9.18;5.03;;;14.60;99.90;;;;;;8373430;28;20420;-81
2023/10/01 18:18:34;;;;;;;10.45;4.95;;;14.40;99.90;;;;;;8375793;28;21068;-82
2023/10/01 18:22:34;;;;;;;10.63;5.63;;;14.30;99.90;;;;;;8372374;28;20089;-81
2023/10/01 18:26:36;;;;;;;9.93;5.13;;;14.20;99.90;;;;;;8379946;28;20029;-80
2023/10/01 18:34:53;;;;;;;13.57;8.48;;;14.10;99.90;;;;;;8418918;22;20131;-81
2023/10/01 18:44:43;;;;;;;12.68;6.38;;;13.70;99.90;;;;;;8289190;28;20087;-81
2023/10/01 18:49:09;;;;;;;12.75;5.55;;;13.50;99.90;;;;;;8277234;28;20536;-82
2023/10/01 18:53:21;;;;;;;11.95;6.15;;;13.50;99.90;;;;;;8292746;28;20112;-81
2023/10/01 18:57:27;;;;;;;10.73;5.43;;;13.50;99.90;;;;;;8276222;28;20018;-81
2023/10/01 19:02:00;;;;;;;12.77;5.68;;;13.40;99.90;;;;;;8293118;28;20077;-81
2023/10/01 19:07:02;;;;;;;13.85;6.20;;;13.30;99.90;;;;;;8276804;28;20439;-81
2023/10/01 19:11:03;;;;;;;12.00;5.72;;;13.00;99.90;;;;;;8281093;28;20465;-80
2023/10/01 19:15:16;;;;;;;11.55;5.57;;;12.90;99.90;;;;;;8314559;28;20029;-81
2023/10/01 19:19:18;;;;;;;11.48;5.20;;;13.00;99.90;;;;;;8330744;28;20032;-80
2023/10/01 19:23:30;;;;;;;9.90;5.28;;;12.90;99.90;;;;;;8327987;28;20025;-81
2023/10/01 19:27:32;;;;;;;11.75;5.28;;;12.90;99.90;;;;;;8329470;28;20025;-81
2023/10/01 19:31:39;;;;;;;10.05;5.03;;;12.80;99.90;;;;;;8335867;28;20021;-80
2023/10/01 19:35:39;;;;;;;9.52;4.70;;;12.60;99.90;;;;;;8335025;28;20033;-80
2023/10/01 19:39:43;;;;;;;10.60;4.68;;;12.40;99.90;;;;;;8343928;28;20359;-81
2023/10/01 19:43:46;;;;;;;10.27;5.55;;;12.30;99.90;;;;;;8333335;28;20028;-81
2023/10/01 19:47:47;;;;;;;12.60;5.43;;;12.10;99.90;;;;;;8343498;28;20017;-82
2023/10/01 19:51:51;;;;;;;13.38;5.60;;;12.30;99.90;;;;;;8340248;28;20025;-82
2023/10/01 19:56:01;;;;;;;10.10;5.50;;;12.20;99.90;;;;;;8346856;28;20047;-82
2023/10/01 20:00:16;;;;;;;12.27;6.03;;;12.00;99.90;;;;;;8344457;28;20031;-81
2023/10/01 20:04:20;;;;;;;12.52;6.28;;;11.90;99.90;;;;;;8352516;28;20215;-81
2023/10/01 20:08:27;;;;;;;12.85;6.22;;;11.80;99.90;;;;;;8351361;28;20036;-82
2023/10/01 20:12:28;;;;;;;12.93;6.15;;;11.60;99.90;;;;;;8329727;28;20029;-82
2023/10/01 20:16:38;;;;;;;11.43;5.75;;;11.60;99.90;;;;;;8344663;28;20490;-82
2023/10/01 20:20:41;;;;;;;13.17;6.03;;;11.60;99.90;;;;;;8347321;28;20527;-81
2023/10/01 20:24:46;;;;;;;10.05;5.03;;;11.50;99.90;;;;;;8342999;28;20033;-81
2023/10/01 20:28:50;;;;;;;9.45;5.63;;;11.30;99.90;;;;;;8345864;28;20017;-82
2023/10/01 20:32:51;;;;;;;12.50;6.38;;;11.30;99.90;;;;;;8343065;28;20064;-82
2023/10/01 20:37:00;;;;;;;10.05;5.70;;;11.30;99.90;;;;;;8350400;28;20040;-82
2023/10/01 20:41:18;;;;;;;10.50;5.75;;;11.30;99.90;;;;;;8331975;28;20063;-82
2023/10/01 20:45:43;;;;;;;;;;;;;;;;;;;;;
2023/10/01 20:50:13;;;;;;;12.18;6.10;;;11.40;99.90;;;;;;8349711;28;20045;-82
2023/10/01 20:54:29;;;;;;;10.15;5.22;;;11.40;99.90;;;;;;8359827;28;20040;-83
2023/10/01 20:58:33;;;;;;;9.73;5.30;;;11.30;99.90;;;;;;8351598;28;20053;-82
2023/10/01 21:02:34;;;;;;;12.45;5.88;;;11.10;99.90;;;;;;8353495;28;20063;-82
2023/10/01 21:06:40;;;;;;;10.77;5.93;;;11.10;99.90;;;;;;8340200;28;20493;-82
2023/10/01 21:10:40;;;;;;;12.50;5.50;;;11.00;99.90;;;;;;8370259;28;20088;-82
2023/10/01 21:14:46;;;;;;;10.93;5.72;;;10.60;99.90;;;;;;8355897;28;20082;-82
2023/10/01 21:18:52;;;;;;;12.82;6.30;;;10.90;99.90;;;;;;8349219;28;20036;-82
2023/10/01 21:22:56;;;;;;;10.50;5.00;;;10.90;99.90;;;;;;8341122;28;20374;-81
2023/10/01 21:26:57;;;;;;;10.07;5.35;;;11.00;99.90;;;;;;8357604;28;20018;-82
2023/10/01 21:31:19;;;;;;;9.10;5.45;;;11.00;99.90;;;;;;8348695;28;20810;-82
2023/10/01 21:35:21;;;;;;;10.50;5.32;;;11.30;99.90;;;;;;8355248;28;20021;-82
2023/10/01 21:39:23;;;;;;;8.90;4.55;;;11.00;99.90;;;;;;8343886;28;20100;-82
2023/10/01 21:43:24;;;;;;;10.68;5.43;;;10.80;99.90;;;;;;8340764;28;20040;-82
2023/10/01 21:47:25;;;;;;;12.27;5.43;;;10.70;99.90;;;;;;8339980;28;20035;-82
2023/10/01 21:51:28;;;;;;;12.68;5.43;;;10.60;99.90;;;;;;8340627;28;20053;-82
2023/10/01 21:55:28;;;;;;;12.05;5.60;;;10.60;99.90;;;;;;8342200;28;20100;-82
2023/10/01 21:59:36;;;;;;;10.20;5.30;;;10.60;99.90;;;;;;8363449;28;20037;-82
2023/10/01 22:03:44;;;;;;;12.85;5.97;;;10.40;99.90;;;;;;8327474;28;20025;-82
2023/10/01 22:07:47;;;;;;;10.65;5.13;;;10.40;99.90;;;;;;8339847;28;20017;-82
2023/10/01 22:11:51;;;;;;;11.65;5.93;;;10.50;99.90;;;;;;8340167;28;20028;-81
2023/10/01 22:16:00;;;;;;;12.95;6.07;;;10.50;99.90;;;;;;8327154;28;20029;-82
2023/10/01 22:20:16;;;;;;;10.20;5.28;;;10.40;99.90;;;;;;8348649;28;20086;-80
2023/10/01 22:24:26;;;;;;;9.43;5.40;;;10.20;99.90;;;;;;8335718;28;20029;-81
2023/10/01 22:28:32;;;;;;;;;;;10.10;99.90;;;;;;8352871;28;20013;-82
2023/10/01 22:32:35;;;;;;;11.00;5.40;;;10.00;99.90;;;;;;8335892;28;19912;-81
2023/10/01 22:36:46;;;;;;;11.20;5.80;;;10.10;99.90;;;;;;8347067;28;20071;-82